Time;durP1;ratioP1;P1;durP2;ratioP2;P2;SDS_P1;SDS_P2;PMS_P1;PMS_P2;Temp;Humidity;BMP_temperature;BMP_pressure;BME280_temperature;BME280_humidity;BME280_pressure;Samples;Min_cycle;Max_cycle;Signal;HPM_P1;HPM_P2
2021/03/30 00:00:26;;;;;;;22.73;7.27;;;9.10;99.90;;;;;;4957415;29;20202;-86
2021/03/30 00:02:53;;;;;;;26.17;8.20;;;9.00;99.90;;;;;;4940907;29;20665;-86
2021/03/30 00:05:19;;;;;;;21.73;6.40;;;9.00;99.90;;;;;;4940535;29;20646;-87
2021/03/30 00:07:44;;;;;;;26.37;7.43;;;9.00;99.90;;;;;;4947820;28;20237;-88
2021/03/30 00:10:14;;;;;;;24.13;7.43;;;8.90;99.90;;;;;;4958795;28;20201;-87
2021/03/30 00:12:40;;;;;;;25.03;7.27;;;9.00;99.90;;;;;;4959861;28;20209;-87
2021/03/30 00:15:08;;;;;;;22.47;7.13;;;9.00;99.90;;;;;;4941595;29;20218;-86
2021/03/30 00:17:33;;;;;;;22.63;8.57;;;8.90;99.90;;;;;;4946391;28;20190;-88
2021/03/30 00:19:59;;;;;;;20.27;6.60;;;8.90;99.90;;;;;;4958849;28;20202;-88
2021/03/30 00:22:24;;;;;;;22.00;7.07;;;8.90;99.90;;;;;;4958941;28;20668;-86
2021/03/30 00:24:50;;;;;;;22.77;7.33;;;8.90;99.90;;;;;;4959393;28;20716;-86
2021/03/30 00:27:16;;;;;;;23.03;7.13;;;8.90;99.90;;;;;;4957977;28;20186;-87
2021/03/30 00:29:46;;;;;;;25.87;7.67;;;8.90;99.90;;;;;;4953015;28;20703;-87
2021/03/30 00:32:13;;;;;;;15.70;6.20;;;8.90;99.90;;;;;;4958752;28;20179;-86
2021/03/30 00:34:39;;;;;;;22.30;8.17;;;8.90;99.90;;;;;;4956161;28;20284;-86
2021/03/30 00:37:05;;;;;;;17.93;7.20;;;8.90;99.90;;;;;;4942826;28;20273;-88
2021/03/30 00:39:31;;;;;;;26.93;7.83;;;8.80;99.90;;;;;;4944886;29;20235;-86
2021/03/30 00:41:56;;;;;;;21.97;7.30;;;8.80;99.90;;;;;;4957585;28;20614;-86
2021/03/30 00:44:22;;;;;;;20.87;7.13;;;8.80;99.90;;;;;;4958938;28;20183;-86
2021/03/30 00:46:50;;;;;;;19.53;6.17;;;8.80;99.90;;;;;;4958036;28;20197;-87
2021/03/30 00:49:16;;;;;;;15.97;6.27;;;8.80;99.90;;;;;;4958372;28;20214;-85
2021/03/30 00:51:43;;;;;;;16.00;6.27;;;8.80;99.90;;;;;;4976443;28;20182;-87
2021/03/30 00:54:09;;;;;;;24.67;7.20;;;8.70;99.90;;;;;;4958940;28;20644;-85
2021/03/30 00:56:36;;;;;;;19.23;7.60;;;8.70;99.90;;;;;;4958232;28;20189;-87
2021/03/30 00:59:02;;;;;;;23.57;7.47;;;8.70;99.90;;;;;;4958691;28;20206;-87
2021/03/30 01:01:28;;;;;;;20.80;6.40;;;8.70;99.90;;;;;;4940443;29;20186;-85
2021/03/30 01:03:53;;;;;;;21.37;7.50;;;8.80;99.90;;;;;;4940040;29;20202;-87
2021/03/30 01:06:19;;;;;;;22.13;6.90;;;8.70;99.90;;;;;;4941056;28;20182;-87
2021/03/30 01:09:01;;;;;;;20.13;6.97;;;8.70;99.90;;;;;;4953667;28;20513;-88
2021/03/30 01:12:05;;;;;;;17.63;6.90;;;8.60;99.90;;;;;;4956265;28;20282;-87
2021/03/30 01:14:48;;;;;;;19.27;7.30;;;8.60;99.90;;;;;;4939245;29;20705;-87
2021/03/30 01:17:18;;;;;;;29.03;7.97;;;8.60;99.90;;;;;;4939196;29;20190;-87
2021/03/30 01:20:02;;;;;;;24.00;7.20;;;8.60;99.90;;;;;;4939089;29;20206;-87
2021/03/30 01:22:58;;;;;;;24.57;8.10;;;8.60;99.90;;;;;;4943220;28;20684;-86
2021/03/30 01:25:26;;;;;;;23.07;7.00;;;8.60;99.90;;;;;;4942576;28;20615;-88
2021/03/30 01:28:16;;;;;;;30.33;8.40;;;8.60;99.90;;;;;;4958078;28;20279;-87
2021/03/30 01:30:41;;;;;;;15.20;7.93;;;8.60;99.90;;;;;;4940653;28;20189;-86
2021/03/30 01:33:12;;;;;;;24.43;7.20;;;8.50;99.90;;;;;;4958550;28;20182;-87
2021/03/30 01:35:40;;;;;;;24.67;7.40;;;8.60;99.90;;;;;;4944664;29;20229;-86
2021/03/30 01:38:07;;;;;;;22.27;7.53;;;8.50;99.90;;;;;;4939017;29;20489;-87
2021/03/30 01:40:34;;;;;;;24.10;7.87;;;8.50;99.90;;;;;;4958299;28;20186;-86
2021/03/30 01:43:02;;;;;;;25.70;7.67;;;8.40;99.90;;;;;;4953056;29;20183;-87
2021/03/30 01:45:32;;;;;;;21.27;7.80;;;8.40;99.90;;;;;;4957718;28;20186;-86
2021/03/30 01:47:58;;;;;;;22.47;7.03;;;8.40;99.90;;;;;;4953826;29;20545;-87
2021/03/30 01:50:25;;;;;;;21.87;8.03;;;8.40;99.90;;;;;;4938389;29;20525;-86
2021/03/30 01:52:53;;;;;;;23.33;7.33;;;8.40;99.90;;;;;;4940092;29;20254;-87
2021/03/30 01:55:19;;;;;;;25.90;7.40;;;8.40;99.90;;;;;;4938510;29;20175;-86
2021/03/30 01:57:47;;;;;;;23.70;7.67;;;8.40;99.90;;;;;;4938855;29;20648;-87
2021/03/30 02:00:15;;;;;;;23.07;8.03;;;8.30;99.90;;;;;;4939845;28;20212;-85
2021/03/30 02:02:45;;;;;;;22.87;7.20;;;8.40;99.90;;;;;;4943603;28;20190;-85
2021/03/30 02:05:12;;;;;;;24.13;7.30;;;8.40;99.90;;;;;;4956058;28;20193;-86
2021/03/30 02:07:40;;;;;;;22.13;7.90;;;8.40;99.90;;;;;;4955980;28;20206;-86
2021/03/30 02:10:17;;;;;;;23.50;8.03;;;8.40;99.90;;;;;;4955382;28;20206;-86
2021/03/30 02:12:45;;;;;;;18.20;7.13;;;8.30;99.90;;;;;;4955055;28;20244;-85
2021/03/30 02:15:15;;;;;;;26.30;8.30;;;8.30;99.90;;;;;;4952431;28;20266;-85
2021/03/30 02:18:03;;;;;;;24.00;7.37;;;8.30;99.90;;;;;;4946799;28;20222;-85
2021/03/30 02:20:36;;;;;;;26.00;8.37;;;8.30;99.90;;;;;;4955618;28;20178;-86
2021/03/30 02:23:08;;;;;;;23.97;8.00;;;8.30;99.90;;;;;;4956169;28;20185;-86
2021/03/30 02:25:35;;;;;;;20.27;7.50;;;8.20;99.90;;;;;;4955630;28;20205;-86
2021/03/30 02:28:09;;;;;;;22.07;7.40;;;8.30;99.90;;;;;;4955162;28;20206;-86
2021/03/30 02:30:36;;;;;;;20.70;7.53;;;8.20;99.90;;;;;;4947918;28;20221;-87
2021/03/30 02:33:05;;;;;;;23.63;8.27;;;8.20;99.90;;;;;;4949039;29;20216;-86
2021/03/30 02:35:32;;;;;;;29.70;9.17;;;8.20;99.90;;;;;;4946230;29;20672;-88
2021/03/30 02:37:58;;;;;;;27.40;8.80;;;8.20;99.90;;;;;;4936507;29;20183;-88
2021/03/30 02:40:24;;;;;;;25.53;9.03;;;8.20;99.90;;;;;;4937143;28;20183;-88
2021/03/30 02:42:51;;;;;;;24.83;8.23;;;8.20;99.90;;;;;;4949306;28;20186;-86
2021/03/30 02:45:22;;;;;;;25.93;10.13;;;8.10;99.90;;;;;;4953874;28;20625;-86
2021/03/30 02:47:48;;;;;;;23.33;9.67;;;8.00;99.90;;;;;;4944517;28;20588;-86
2021/03/30 02:50:15;;;;;;;25.13;8.20;;;8.10;99.90;;;;;;4955334;28;20202;-88
2021/03/30 02:52:42;;;;;;;20.03;7.47;;;8.00;99.90;;;;;;4957717;28;20183;-86
2021/03/30 02:55:08;;;;;;;26.87;8.73;;;8.10;99.90;;;;;;4953280;28;20186;-87
2021/03/30 02:57:35;;;;;;;18.97;7.90;;;8.00;99.90;;;;;;4958312;28;20188;-87
2021/03/30 03:00:01;;;;;;;26.03;9.23;;;8.00;99.90;;;;;;4959376;28;20201;-87
2021/03/30 03:02:28;;;;;;;24.90;8.93;;;8.00;99.90;;;;;;4975930;28;20269;-87
2021/03/30 03:04:53;;;;;;;21.77;8.00;;;8.00;99.90;;;;;;4959312;28;20218;-87
2021/03/30 03:07:20;;;;;;;19.60;7.40;;;8.10;99.90;;;;;;4958687;28;20210;-87
2021/03/30 03:09:47;;;;;;;24.63;8.40;;;8.00;99.90;;;;;;4958516;28;20198;-87
2021/03/30 03:12:15;;;;;;;20.57;6.83;;;8.00;99.90;;;;;;4940046;29;20238;-86
2021/03/30 03:14:43;;;;;;;20.43;7.03;;;8.00;99.90;;;;;;4940694;29;20197;-85
2021/03/30 03:17:09;;;;;;;17.67;6.97;;;7.90;99.90;;;;;;4939901;29;20194;-87
2021/03/30 03:19:36;;;;;;;18.70;7.63;;;7.90;99.90;;;;;;4940577;29;20218;-86
2021/03/30 03:22:05;;;;;;;21.07;7.17;;;7.90;99.90;;;;;;4945759;28;20200;-86
2021/03/30 03:24:32;;;;;;;22.27;7.97;;;7.80;99.90;;;;;;4958760;28;20182;-86
2021/03/30 03:26:58;;;;;;;22.97;7.77;;;7.80;99.90;;;;;;4957945;28;20658;-86
2021/03/30 03:29:23;;;;;;;23.67;8.67;;;7.80;99.90;;;;;;4955932;28;20349;-88
2021/03/30 03:31:50;;;;;;;18.80;7.40;;;7.80;99.90;;;;;;4939671;29;20183;-86
2021/03/30 03:34:17;;;;;;;20.83;7.80;;;7.80;99.90;;;;;;4946045;29;20207;-86
2021/03/30 03:36:45;;;;;;;17.67;7.17;;;7.80;99.90;;;;;;4940136;29;20190;-87
2021/03/30 03:39:13;;;;;;;21.43;7.90;;;7.90;99.90;;;;;;4939518;29;20568;-86
2021/03/30 03:41:40;;;;;;;20.53;7.50;;;7.90;99.90;;;;;;4944210;28;20236;-86
2021/03/30 03:44:06;;;;;;;17.27;6.90;;;7.90;99.90;;;;;;4949004;29;20216;-86
2021/03/30 03:46:32;;;;;;;26.27;7.63;;;7.90;99.90;;;;;;4943108;28;20198;-87
2021/03/30 03:48:58;;;;;;;22.20;7.63;;;7.80;99.90;;;;;;4958151;28;20217;-86
2021/03/30 03:51:26;;;;;;;24.00;8.00;;;7.90;99.90;;;;;;4957870;28;20652;-85
2021/03/30 03:53:54;;;;;;;23.43;8.23;;;7.80;99.90;;;;;;4975495;28;20567;-86
2021/03/30 03:56:44;;;;;;;22.23;7.77;;;7.80;99.90;;;;;;4957790;28;20611;-85
2021/03/30 03:59:21;;;;;;;24.30;8.70;;;7.70;99.90;;;;;;4932018;29;20214;-86
2021/03/30 04:01:55;;;;;;;22.70;7.90;;;7.80;99.90;;;;;;4943375;28;20209;-85
2021/03/30 04:04:30;;;;;;;25.27;8.43;;;7.70;99.90;;;;;;4958729;28;20190;-85
2021/03/30 04:07:00;;;;;;;26.87;9.00;;;7.70;99.90;;;;;;4958754;28;20184;-87
2021/03/30 04:09:27;;;;;;;25.23;8.50;;;7.80;99.90;;;;;;4958573;28;20301;-86
2021/03/30 04:11:54;;;;;;;22.10;8.57;;;7.70;99.90;;;;;;4958571;28;20197;-85
2021/03/30 04:14:20;;;;;;;24.33;9.33;;;7.80;99.90;;;;;;4958895;28;20178;-87
2021/03/30 04:16:47;;;;;;;29.03;10.27;;;7.80;99.90;;;;;;4958792;28;20620;-86
2021/03/30 04:19:13;;;;;;;22.53;9.10;;;7.80;99.90;;;;;;4958929;28;20202;-85
2021/03/30 04:21:39;;;;;;;22.37;8.80;;;7.70;99.90;;;;;;4959436;28;20186;-88
2021/03/30 04:24:08;;;;;;;28.10;10.37;;;7.80;99.90;;;;;;4959134;28;20581;-87
2021/03/30 04:26:37;;;;;;;22.83;9.27;;;7.80;99.90;;;;;;4958324;28;20301;-86
2021/03/30 04:29:04;;;;;;;27.10;9.60;;;7.70;99.90;;;;;;4958335;28;20217;-88
2021/03/30 04:31:30;;;;;;;26.73;9.83;;;7.80;99.90;;;;;;4953986;28;20629;-86
2021/03/30 04:33:56;;;;;;;25.20;9.20;;;7.70;99.90;;;;;;4958393;28;20201;-87
2021/03/30 04:36:28;;;;;;;21.17;9.13;;;7.80;99.90;;;;;;4957635;28;20652;-87
2021/03/30 04:38:54;;;;;;;27.53;10.10;;;7.70;99.90;;;;;;4958159;28;20698;-86
2021/03/30 04:41:19;;;;;;;28.83;9.90;;;7.80;99.90;;;;;;4958131;28;20182;-86
2021/03/30 04:43:45;;;;;;;21.33;9.20;;;7.70;99.90;;;;;;4954005;29;20179;-85
2021/03/30 04:46:11;;;;;;;25.77;9.63;;;7.70;99.90;;;;;;4939137;29;20705;-85
2021/03/30 04:48:36;;;;;;;27.97;10.03;;;7.70;99.90;;;;;;4957132;28;20224;-86
2021/03/30 04:51:03;;;;;;;24.73;9.77;;;7.70;99.90;;;;;;4958101;28;20186;-86
2021/03/30 04:53:29;;;;;;;26.73;10.30;;;7.60;99.90;;;;;;4958238;28;20186;-87
2021/03/30 04:55:55;;;;;;;25.83;8.90;;;7.70;99.90;;;;;;4957460;28;20190;-87
2021/03/30 04:58:20;;;;;;;26.37;9.37;;;7.60;99.90;;;;;;4956303;28;20288;-87
2021/03/30 05:00:46;;;;;;;30.97;10.73;;;7.60;99.90;;;;;;4954051;28;20213;-87
2021/03/30 05:03:12;;;;;;;29.50;10.17;;;7.50;99.90;;;;;;4950686;28;20186;-86
2021/03/30 05:05:38;;;;;;;22.73;9.17;;;7.50;99.90;;;;;;4968258;28;20186;-87
2021/03/30 05:08:04;;;;;;;24.10;9.23;;;7.60;99.90;;;;;;4957422;28;20206;-87
2021/03/30 05:10:30;;;;;;;27.00;8.77;;;7.50;99.90;;;;;;4974468;28;20307;-87
2021/03/30 05:12:55;;;;;;;23.77;8.83;;;7.60;99.90;;;;;;4960481;28;20640;-86
2021/03/30 05:15:21;;;;;;;26.10;9.60;;;7.50;99.90;;;;;;4953668;28;20178;-86
2021/03/30 05:17:47;;;;;;;21.60;9.00;;;7.50;99.90;;;;;;4957307;28;20193;-87
2021/03/30 05:20:13;;;;;;;25.60;10.07;;;7.50;99.90;;;;;;4956777;28;20746;-88
2021/03/30 05:22:38;;;;;;;26.63;9.80;;;7.50;99.90;;;;;;4962913;28;20190;-87
2021/03/30 05:25:07;;;;;;;25.13;9.53;;;7.50;99.90;;;;;;4957371;28;20593;-86
2021/03/30 05:27:33;;;;;;;27.23;9.57;;;7.50;99.90;;;;;;4956614;28;20259;-85
2021/03/30 05:29:59;;;;;;;26.73;8.93;;;7.40;99.90;;;;;;4959752;28;20209;-87
2021/03/30 05:32:24;;;;;;;26.37;8.83;;;7.50;99.90;;;;;;4954075;28;20182;-86
2021/03/30 05:34:51;;;;;;;26.10;8.73;;;7.60;99.90;;;;;;4950626;28;20207;-87
2021/03/30 05:37:17;;;;;;;26.17;9.07;;;7.60;99.90;;;;;;4950203;28;20182;-87
2021/03/30 05:39:43;;;;;;;24.57;9.37;;;7.60;99.90;;;;;;4956468;28;20349;-86
2021/03/30 05:42:09;;;;;;;21.33;8.20;;;7.60;99.90;;;;;;4956684;28;20633;-88
2021/03/30 05:44:35;;;;;;;26.47;10.33;;;7.60;99.90;;;;;;4957685;28;20190;-85
2021/03/30 05:49:28;;;;;;;26.87;8.93;;;7.80;99.90;;;;;;4974237;28;20232;-84
2021/03/30 05:51:55;;;;;;;25.20;9.20;;;7.80;99.90;;;;;;4959127;28;20649;-86
2021/03/30 05:54:24;;;;;;;23.63;10.30;;;7.80;99.90;;;;;;4950793;28;20200;-85
2021/03/30 05:57:03;;;;;;;25.13;9.07;;;7.80;99.90;;;;;;4962032;28;20198;-86
2021/03/30 05:59:32;;;;;;;24.80;9.10;;;7.80;99.90;;;;;;4955277;28;20288;-85
2021/03/30 06:01:58;;;;;;;26.73;8.73;;;7.90;99.90;;;;;;4957615;28;20221;-86
2021/03/30 06:04:25;;;;;;;18.37;8.03;;;7.90;99.90;;;;;;4952415;28;20237;-87
2021/03/30 06:06:50;;;;;;;19.43;8.13;;;8.00;99.90;;;;;;4955840;28;20224;-85
2021/03/30 06:09:20;;;;;;;25.33;8.97;;;8.00;99.90;;;;;;4952341;28;20245;-88
2021/03/30 06:11:46;;;;;;;19.67;8.33;;;8.10;99.90;;;;;;4954712;28;20186;-86
2021/03/30 06:14:11;;;;;;;21.33;8.67;;;8.10;99.90;;;;;;4956671;28;20683;-86
2021/03/30 06:16:39;;;;;;;21.33;9.70;;;8.20;99.90;;;;;;4957161;28;20190;-87
2021/03/30 06:19:17;;;;;;;26.93;10.33;;;8.20;99.90;;;;;;4967932;28;20198;-87
2021/03/30 06:22:00;;;;;;;27.47;10.13;;;8.30;99.90;;;;;;4956969;28;20221;-87
2021/03/30 06:24:31;;;;;;;25.83;9.77;;;8.30;99.90;;;;;;4949785;28;20277;-85
2021/03/30 06:27:35;;;;;;;31.40;12.90;;;8.40;99.90;;;;;;4960994;28;20564;-85
2021/03/30 06:30:01;;;;;;;27.83;9.47;;;8.50;99.90;;;;;;4956264;28;20214;-86
2021/03/30 06:32:27;;;;;;;26.50;9.50;;;8.50;99.90;;;;;;4960400;28;20228;-85
2021/03/30 06:35:08;;;;;;;24.67;9.43;;;8.60;99.90;;;;;;4960296;28;20239;-85
2021/03/30 06:37:38;;;;;;;27.97;11.70;;;8.60;99.90;;;;;;4960601;28;20190;-86
2021/03/30 06:40:19;;;;;;;24.03;10.13;;;8.70;99.90;;;;;;4960444;28;20284;-85
2021/03/30 06:42:48;;;;;;;26.30;10.80;;;8.80;99.90;;;;;;4960775;28;20209;-86
2021/03/30 06:45:20;;;;;;;22.13;9.83;;;8.80;99.90;;;;;;4954055;28;20268;-86
2021/03/30 06:47:55;;;;;;;25.03;11.30;;;8.90;99.90;;;;;;4960563;28;20217;-86
2021/03/30 06:50:25;;;;;;;24.40;10.67;;;9.00;99.90;;;;;;4960139;28;20267;-88
2021/03/30 06:52:51;;;;;;;31.37;11.57;;;9.10;99.90;;;;;;4959644;28;20186;-87
2021/03/30 06:55:28;;;;;;;30.00;10.30;;;9.20;99.90;;;;;;4963459;28;20193;-86
2021/03/30 06:58:04;;;;;;;31.10;10.10;;;9.30;99.90;;;;;;4958851;28;20209;-86
2021/03/30 07:00:32;;;;;;;23.17;10.10;;;9.30;99.90;;;;;;4960226;28;20651;-85
2021/03/30 07:03:02;;;;;;;33.77;12.70;;;9.40;99.90;;;;;;4970160;28;20225;-86
2021/03/30 07:05:47;;;;;;;26.13;11.00;;;9.50;99.90;;;;;;4950865;28;20194;-86
2021/03/30 07:08:31;;;;;;;23.13;8.80;;;9.60;99.90;;;;;;4952274;28;20206;-86
2021/03/30 07:11:11;;;;;;;26.00;11.43;;;9.70;99.90;;;;;;4957578;28;20218;-87
2021/03/30 07:13:38;;;;;;;27.97;10.53;;;9.80;99.90;;;;;;4961935;28;20190;-86
2021/03/30 07:16:16;;;;;;;26.87;10.47;;;9.80;99.90;;;;;;4958120;28;20237;-86
2021/03/30 07:18:59;;;;;;;24.83;9.77;;;9.90;99.90;;;;;;4953577;29;20627;-86
2021/03/30 07:21:49;;;;;;;25.33;13.13;;;10.00;99.90;;;;;;4957669;28;20232;-85
2021/03/30 07:24:19;;;;;;;27.20;9.47;;;10.00;99.90;;;;;;4955690;28;20182;-85
2021/03/30 07:26:50;;;;;;;24.90;9.43;;;10.10;99.90;;;;;;4953696;28;20198;-88
2021/03/30 07:29:40;;;;;;;21.37;9.10;;;10.20;99.90;;;;;;4973782;28;20237;-85
2021/03/30 07:32:06;;;;;;;26.07;9.77;;;10.30;99.90;;;;;;4956876;28;20182;-85
2021/03/30 07:34:57;;;;;;;27.93;9.57;;;10.40;99.90;;;;;;4956252;28;20260;-85
2021/03/30 07:37:39;;;;;;;29.93;10.17;;;10.50;99.90;;;;;;4975859;28;20178;-86
2021/03/30 07:40:06;;;;;;;20.70;8.70;;;10.60;99.90;;;;;;4975157;28;20225;-85
2021/03/30 07:42:32;;;;;;;24.40;8.83;;;10.70;99.90;;;;;;4959260;28;20245;-85
2021/03/30 07:44:59;;;;;;;27.33;10.37;;;10.70;99.90;;;;;;4956111;28;20179;-87
2021/03/30 07:47:25;;;;;;;29.00;10.13;;;10.80;99.90;;;;;;4958305;28;20178;-86
2021/03/30 07:49:53;;;;;;;25.27;9.20;;;10.90;99.90;;;;;;4968065;28;20754;-86
2021/03/30 07:52:29;;;;;;;27.03;9.17;;;10.90;99.90;;;;;;4959721;28;20675;-88
2021/03/30 07:55:24;;;;;;;27.97;11.17;;;11.00;99.90;;;;;;4955781;28;20186;-85
2021/03/30 07:57:57;;;;;;;25.87;9.47;;;11.10;99.90;;;;;;4959016;28;20206;-85
2021/03/30 08:00:31;;;;;;;20.10;9.10;;;11.30;99.90;;;;;;4970877;28;20234;-88
2021/03/30 08:03:11;;;;;;;26.13;10.37;;;11.40;99.90;;;;;;4958252;28;20196;-88
2021/03/30 08:05:37;;;;;;;22.97;8.40;;;11.50;99.90;;;;;;4958859;28;20269;-88
2021/03/30 08:08:18;;;;;;;22.53;8.07;;;11.70;99.90;;;;;;4959453;28;20574;-86
2021/03/30 08:10:45;;;;;;;28.03;8.67;;;11.70;99.90;;;;;;4954325;28;20193;-85
2021/03/30 08:13:23;;;;;;;22.00;8.93;;;11.70;99.90;;;;;;4955577;28;20592;-86
2021/03/30 08:16:07;;;;;;;26.03;9.13;;;11.80;99.90;;;;;;4958550;28;20217;-85
2021/03/30 08:18:35;;;;;;;26.10;9.63;;;11.90;99.90;;;;;;4973488;28;20294;-85
2021/03/30 08:21:09;;;;;;;23.17;8.63;;;11.90;99.90;;;;;;4959841;28;20273;-87
2021/03/30 08:24:05;;;;;;;21.00;8.30;;;12.00;99.90;;;;;;4959019;28;20304;-86
2021/03/30 08:26:38;;;;;;;21.17;9.00;;;12.10;99.90;;;;;;4960019;28;20191;-86
2021/03/30 08:29:12;;;;;;;22.57;8.60;;;12.20;99.90;;;;;;4958153;28;20247;-87
2021/03/30 08:31:41;;;;;;;23.43;8.27;;;12.30;99.90;;;;;;4958666;28;20193;-86
2021/03/30 08:34:22;;;;;;;22.43;8.37;;;12.40;99.90;;;;;;4958571;28;20199;-87
2021/03/30 08:36:54;;;;;;;18.77;8.20;;;12.40;99.90;;;;;;4973149;28;20561;-89
2021/03/30 08:39:19;;;;;;;20.20;9.23;;;12.60;99.90;;;;;;4955826;28;20232;-86
2021/03/30 08:41:58;;;;;;;24.83;8.50;;;12.70;99.90;;;;;;4958563;28;20689;-86
2021/03/30 08:44:41;;;;;;;18.10;8.53;;;12.70;99.90;;;;;;4949567;28;20187;-89
2021/03/30 08:47:08;;;;;;;28.63;9.03;;;12.80;99.90;;;;;;4955622;28;20200;-87
2021/03/30 08:49:38;;;;;;;22.40;9.30;;;12.90;99.90;;;;;;4953515;28;20219;-87
2021/03/30 08:52:32;;;;;;;18.50;8.57;;;13.00;99.90;;;;;;4953121;28;20180;-87
2021/03/30 08:54:59;;;;;;;21.50;8.63;;;13.10;99.90;;;;;;4956989;28;20184;-87
2021/03/30 08:57:30;;;;;;;26.53;9.23;;;13.10;99.90;;;;;;4962242;28;20195;-86
2021/03/30 08:59:55;;;;;;;22.03;8.40;;;13.20;99.90;;;;;;4961554;28;20208;-88
2021/03/30 09:02:28;;;;;;;24.63;7.80;;;13.30;99.90;;;;;;4951949;28;20176;-87
2021/03/30 09:04:55;;;;;;;19.23;7.00;;;13.50;99.90;;;;;;4949967;28;20195;-88
2021/03/30 09:07:21;;;;;;;21.17;7.60;;;13.70;99.90;;;;;;4977221;28;20225;-88
2021/03/30 09:09:48;;;;;;;19.90;7.73;;;13.90;99.90;;;;;;4959225;28;20212;-85
2021/03/30 09:12:16;;;;;;;23.23;7.97;;;14.00;99.90;;;;;;4943365;28;20231;-86
2021/03/30 09:14:46;;;;;;;21.27;7.70;;;14.10;99.90;;;;;;4949052;28;20615;-86
2021/03/30 09:17:13;;;;;;;18.73;7.33;;;14.20;99.90;;;;;;4948154;28;20188;-86
2021/03/30 09:19:43;;;;;;;18.37;7.17;;;14.20;99.90;;;;;;4957724;28;20239;-86
2021/03/30 09:22:16;;;;;;;20.00;7.10;;;14.10;99.90;;;;;;4951497;28;20232;-87
2021/03/30 09:27:23;;;;;;;16.07;6.77;;;14.30;99.90;;;;;;4975824;28;20271;-87
2021/03/30 09:30:02;;;;;;;21.40;8.03;;;14.40;99.90;;;;;;4951441;28;20250;-88
2021/03/30 09:32:30;;;;;;;21.93;7.97;;;14.40;99.90;;;;;;4968657;28;20181;-86
2021/03/30 09:35:14;;;;;;;19.10;8.10;;;14.60;99.90;;;;;;4950808;28;20259;-86
2021/03/30 09:37:44;;;;;;;17.17;8.07;;;14.70;99.90;;;;;;4955979;28;20216;-85
2021/03/30 09:40:17;;;;;;;17.67;7.20;;;14.80;99.90;;;;;;4957190;28;20738;-86
2021/03/30 09:42:44;;;;;;;23.03;7.87;;;14.80;99.90;;;;;;4957598;28;20693;-87
2021/03/30 09:45:26;;;;;;;20.57;8.13;;;14.70;99.90;;;;;;4957354;28;20185;-87
2021/03/30 09:47:52;;;;;;;19.17;7.77;;;14.60;99.90;;;;;;4975150;28;20728;-87
2021/03/30 09:50:20;;;;;;;19.77;7.77;;;14.60;99.90;;;;;;4959972;28;20212;-87
2021/03/30 09:52:46;;;;;;;17.57;8.13;;;14.70;99.90;;;;;;4960257;28;20209;-87
2021/03/30 09:55:12;;;;;;;18.67;8.00;;;14.90;99.90;;;;;;4960543;28;20197;-87
2021/03/30 09:57:38;;;;;;;18.03;7.40;;;15.00;99.90;;;;;;4960156;28;20193;-86
2021/03/30 10:00:05;;;;;;;18.97;7.60;;;15.00;99.90;;;;;;4959592;28;20213;-86
2021/03/30 10:02:37;;;;;;;19.33;7.47;;;15.10;99.90;;;;;;4960151;28;20193;-86
2021/03/30 10:05:06;;;;;;;15.97;7.00;;;15.10;99.90;;;;;;4959787;28;20276;-87
2021/03/30 10:07:33;;;;;;;17.17;7.83;;;15.20;99.90;;;;;;4958955;28;20186;-86
2021/03/30 10:10:07;;;;;;;18.77;7.77;;;15.20;99.90;;;;;;4959745;28;20230;-87
2021/03/30 10:12:38;;;;;;;18.63;7.80;;;15.20;99.90;;;;;;4959374;28;20213;-87
2021/03/30 10:15:05;;;;;;;21.40;8.03;;;15.10;99.90;;;;;;4954321;29;20179;-86
2021/03/30 10:17:32;;;;;;;23.40;9.03;;;15.10;99.90;;;;;;4955253;28;20200;-86
2021/03/30 10:19:59;;;;;;;18.80;9.17;;;15.30;99.90;;;;;;4957863;28;20217;-86
2021/03/30 10:22:31;;;;;;;19.50;8.97;;;15.30;99.90;;;;;;4975308;28;20185;-86
2021/03/30 10:25:29;;;;;;;16.73;7.63;;;15.40;99.90;;;;;;4957525;28;20186;-87
2021/03/30 10:28:00;;;;;;;16.77;6.57;;;15.60;99.90;;;;;;4963308;28;20583;-87
2021/03/30 10:30:43;;;;;;;16.77;7.77;;;15.70;99.90;;;;;;4957009;28;20196;-86
2021/03/30 10:33:18;;;;;;;19.20;8.83;;;15.80;99.90;;;;;;4962149;28;20272;-87
2021/03/30 10:35:44;;;;;;;17.93;7.00;;;15.80;99.90;;;;;;4957440;28;20205;-87
2021/03/30 10:38:10;;;;;;;16.00;7.77;;;15.90;99.90;;;;;;4957110;28;20197;-87
2021/03/30 10:40:40;;;;;;;20.90;7.80;;;16.00;99.90;;;;;;4957449;28;20592;-85
2021/03/30 10:43:23;;;;;;;19.23;7.23;;;16.00;99.90;;;;;;4975160;28;20190;-86
2021/03/30 10:45:50;;;;;;;13.00;7.20;;;16.10;99.90;;;;;;4957323;28;20221;-86
2021/03/30 10:48:16;;;;;;;14.63;7.07;;;16.20;99.90;;;;;;4974713;28;20297;-86
2021/03/30 10:50:42;;;;;;;13.10;7.17;;;16.30;99.90;;;;;;4957297;28;20240;-86
2021/03/30 10:53:08;;;;;;;15.17;6.83;;;16.40;99.90;;;;;;4957332;28;20232;-85
2021/03/30 10:55:34;;;;;;;19.03;8.20;;;16.20;99.90;;;;;;4957337;28;20186;-87
2021/03/30 10:58:11;;;;;;;18.10;8.57;;;16.30;99.90;;;;;;4956955;28;20564;-87
2021/03/30 11:00:38;;;;;;;19.37;8.10;;;16.30;99.90;;;;;;4956723;28;20653;-85
2021/03/30 11:03:04;;;;;;;13.30;7.27;;;16.40;99.90;;;;;;4956847;28;20194;-86
2021/03/30 11:05:30;;;;;;;17.90;7.83;;;16.30;99.90;;;;;;4956674;28;20693;-86
2021/03/30 11:07:56;;;;;;;17.23;7.17;;;16.40;99.90;;;;;;4956605;28;20211;-87
2021/03/30 11:10:23;;;;;;;18.60;7.50;;;16.50;99.90;;;;;;4957040;28;20195;-86
2021/03/30 11:12:48;;;;;;;16.60;7.87;;;16.50;99.90;;;;;;4960450;28;20653;-86
2021/03/30 11:15:14;;;;;;;14.93;7.17;;;16.50;99.90;;;;;;4960615;28;20241;-86
2021/03/30 11:17:40;;;;;;;16.93;7.53;;;16.50;99.90;;;;;;4960837;28;20194;-86
2021/03/30 11:20:09;;;;;;;15.33;7.07;;;16.50;99.90;;;;;;4959960;28;20207;-86
2021/03/30 11:22:34;;;;;;;16.23;7.27;;;16.50;99.90;;;;;;4960431;28;20244;-86
2021/03/30 11:25:03;;;;;;;16.53;7.13;;;16.40;99.90;;;;;;4978228;28;20185;-86
2021/03/30 11:27:31;;;;;;;17.47;7.07;;;16.30;99.90;;;;;;4960514;28;20242;-87
2021/03/30 11:30:13;;;;;;;17.07;6.93;;;16.30;99.90;;;;;;4959856;28;20235;-86
2021/03/30 11:32:44;;;;;;;16.97;6.67;;;16.20;99.90;;;;;;4959930;28;20196;-85
2021/03/30 11:35:14;;;;;;;17.53;7.17;;;16.30;99.90;;;;;;4959518;28;20245;-86
2021/03/30 11:37:45;;;;;;;16.27;6.83;;;16.40;99.90;;;;;;4960346;28;20215;-86
2021/03/30 11:40:12;;;;;;;15.53;7.13;;;16.40;99.90;;;;;;4959313;28;20564;-86
2021/03/30 11:42:38;;;;;;;15.30;7.33;;;16.50;99.90;;;;;;4959028;28;20680;-86
2021/03/30 11:45:05;;;;;;;14.20;6.30;;;16.50;99.90;;;;;;4959168;28;20191;-87
2021/03/30 11:47:30;;;;;;;16.53;6.47;;;16.40;99.90;;;;;;4958922;28;20191;-86
2021/03/30 11:49:56;;;;;;;15.67;7.93;;;16.30;99.90;;;;;;4975869;28;20213;-87
2021/03/30 11:52:21;;;;;;;15.70;7.00;;;16.30;99.90;;;;;;4958971;28;20661;-85
2021/03/30 11:54:47;;;;;;;13.13;6.60;;;16.30;99.90;;;;;;4959000;28;20180;-86
2021/03/30 11:57:12;;;;;;;14.20;6.00;;;16.30;99.90;;;;;;4958854;28;20201;-86
2021/03/30 11:59:38;;;;;;;12.07;6.47;;;16.30;99.90;;;;;;4958471;28;20209;-87
2021/03/30 12:02:04;;;;;;;14.00;6.70;;;16.30;99.90;;;;;;4958748;28;20196;-87
2021/03/30 12:04:30;;;;;;;14.97;6.53;;;16.40;99.90;;;;;;4975841;28;20187;-86
2021/03/30 12:06:57;;;;;;;10.60;5.93;;;16.40;99.90;;;;;;4958765;28;20545;-86
2021/03/30 12:09:22;;;;;;;14.13;6.90;;;16.50;99.90;;;;;;4958196;28;20238;-85
2021/03/30 12:11:48;;;;;;;12.03;5.83;;;16.50;99.90;;;;;;4958533;28;20183;-87
2021/03/30 12:14:15;;;;;;;11.03;6.07;;;16.60;99.90;;;;;;4975702;28;20194;-85
2021/03/30 12:16:42;;;;;;;11.03;5.50;;;16.50;99.90;;;;;;4958170;28;20571;-85
2021/03/30 12:19:08;;;;;;;11.83;5.47;;;16.50;99.90;;;;;;4956335;28;20262;-88
2021/03/30 12:21:33;;;;;;;13.33;6.27;;;16.60;99.90;;;;;;4958081;28;20192;-86
2021/03/30 12:23:59;;;;;;;14.57;6.77;;;16.60;99.90;;;;;;4958377;28;20241;-88
2021/03/30 12:26:24;;;;;;;10.57;5.60;;;16.50;99.90;;;;;;4958207;28;20281;-86
2021/03/30 12:28:50;;;;;;;11.37;5.77;;;16.50;99.90;;;;;;4954272;28;20306;-86
2021/03/30 12:31:15;;;;;;;13.47;6.07;;;16.50;99.90;;;;;;4958156;28;20235;-85
2021/03/30 12:33:41;;;;;;;12.10;6.10;;;16.60;99.90;;;;;;4958084;28;20188;-86
2021/03/30 12:36:07;;;;;;;16.07;6.23;;;16.50;99.90;;;;;;4958149;28;20188;-86
2021/03/30 12:38:33;;;;;;;11.33;5.33;;;16.50;99.90;;;;;;4957726;28;20251;-87
2021/03/30 12:40:59;;;;;;;14.00;5.70;;;16.40;99.90;;;;;;4957931;28;20606;-86
2021/03/30 12:43:24;;;;;;;11.50;5.67;;;16.30;99.90;;;;;;4957944;28;20200;-88
2021/03/30 12:45:50;;;;;;;11.17;5.40;;;16.40;99.90;;;;;;4975248;28;20197;-86
2021/03/30 12:48:15;;;;;;;12.93;6.90;;;16.40;99.90;;;;;;4957635;28;20213;-87
2021/03/30 12:50:42;;;;;;;11.57;5.60;;;16.50;99.90;;;;;;4957678;28;20200;-86
2021/03/30 12:53:08;;;;;;;12.00;5.70;;;16.50;99.90;;;;;;4957881;28;20188;-85
2021/03/30 12:55:34;;;;;;;13.07;5.83;;;16.60;99.90;;;;;;4957599;28;20337;-86
2021/03/30 12:58:00;;;;;;;11.60;5.00;;;16.60;99.90;;;;;;4974424;28;20632;-84